Aviation Digital Data Service (ADDS)

Output produced by METARs form (1124 UTC 17 June 2019)
found at http://www.aviationweather.gov/metar/data/
 
Forecast for: HLLB (BENINA/BENGHAZI , LY)
Text: TAF HLLB 171100Z 1712/1812 VRB02KT 8000 FEW030 SCT070
Forecast period: 1200 to 1400 UTC 17 June 2019
Forecast type: FROM: standard forecast or significant change
Winds: variable direction winds at 2 MPH (2 knots; 1.0 m/s)
Visibility: 5 miles (8 km)
Ceiling: at least 12,000 feet AGL
Clouds: few clouds at 3000 feet AGL
scattered clouds at 7000 feet AGL
Weather: no significant weather forecast for this period
Text: BECMG 1714/1716 35012KT
Forecast period: 1400 UTC 17 June 2019 to 0000 UTC 18 June 2019
Forecast type: BECOMING: Conditions expected to become as follows by 1600 UTC 17 June 2019
Winds: from the N (350 degrees) at 14 MPH (12 knots; 6.2 m/s)
Visibility: 5 miles (8 km)
Ceiling: at least 12,000 feet AGL
Clouds: few clouds at 3000 feet AGL
scattered clouds at 7000 feet AGL
Weather: no significant weather forecast for this period
Text: BECMG 1800/1802 VRB02KT
Forecast period: 0000 to 1200 UTC 18 June 2019
Forecast type: BECOMING: Conditions expected to become as follows by 0200 UTC 18 June 2019
Winds: variable direction winds at 2 MPH (2 knots; 1.0 m/s)
Visibility: 5 miles (8 km)
Ceiling: at least 12,000 feet AGL
Clouds: few clouds at 3000 feet AGL
scattered clouds at 7000 feet AGL
Weather: no significant weather forecast for this period